createdAt,value
2023-04-03T00:01:11.341Z,4.13
2023-04-03T00:03:38.285Z,8.38
2023-04-03T00:06:07.893Z,3.33
2023-04-03T00:08:34.891Z,4.57
2023-04-03T00:11:01.793Z,4.50
2023-04-03T00:13:28.754Z,6.47
2023-04-03T00:15:55.770Z,6.13
2023-04-03T00:18:23.299Z,3.28
2023-04-03T00:20:50.582Z,6.07
2023-04-03T00:23:17.509Z,5.38
2023-04-03T00:25:44.692Z,6.60
2023-04-03T00:28:12.191Z,2.85
2023-04-03T00:30:39.205Z,8.43
2023-04-03T00:33:06.474Z,11.13
2023-04-03T00:35:35.057Z,2.90
2023-04-03T00:38:02.082Z,2.35
2023-04-03T00:40:34.293Z,6.93
2023-04-03T00:43:16.321Z,3.75
2023-04-03T00:45:46.224Z,7.78
2023-04-03T00:48:21.151Z,6.90
2023-04-03T00:50:48.893Z,6.22
2023-04-03T00:53:26.683Z,5.72
2023-04-03T00:55:56.701Z,9.48
2023-04-03T00:58:31.989Z,2.95
2023-04-03T01:01:00.074Z,7.70
2023-04-03T01:03:27.194Z,7.07
2023-04-03T01:05:54.263Z,6.88
2023-04-03T01:08:21.379Z,4.05
2023-04-03T01:10:48.283Z,2.97
2023-04-03T01:13:41.866Z,3.45
2023-04-03T01:16:09.550Z,7.75
2023-04-03T01:18:39.613Z,6.47
2023-04-03T01:21:38.987Z,5.85
2023-04-03T01:24:31.428Z,5.97
2023-04-03T01:26:58.792Z,5.10
2023-04-03T01:29:25.847Z,2.55
2023-04-03T01:31:56.555Z,7.43
2023-04-03T01:34:23.723Z,2.33
2023-04-03T01:36:51.930Z,6.80
2023-04-03T01:39:19.441Z,8.02
2023-04-03T01:41:46.741Z,6.13
2023-04-03T01:44:14.094Z,3.42
2023-04-03T01:46:42.367Z,3.25
2023-04-03T01:49:09.721Z,6.20
2023-04-03T01:51:36.672Z,5.47
2023-04-03T01:54:03.933Z,4.20
2023-04-03T01:56:30.875Z,5.05
2023-04-03T01:58:57.727Z,9.35
2023-04-03T02:01:24.689Z,7.57
2023-04-03T02:03:51.917Z,6.85
2023-04-03T02:06:18.805Z,8.52
2023-04-03T02:08:45.683Z,8.55
2023-04-03T02:11:12.555Z,3.25
2023-04-03T02:13:39.515Z,2.30
2023-04-03T02:16:11.102Z,3.50
2023-04-03T02:18:39.271Z,2.80
2023-04-03T02:21:06.715Z,10.38
2023-04-03T02:23:34.695Z,1.40
2023-04-03T02:26:10.328Z,4.82
2023-04-03T02:28:37.501Z,10.23
2023-04-03T02:31:05.910Z,2.47
2023-04-03T02:33:32.991Z,5.82
2023-04-03T02:36:00.108Z,3.67
2023-04-03T02:38:27.319Z,2.70
2023-04-03T02:40:54.148Z,7.78
2023-04-03T02:43:21.059Z,4.72
2023-04-03T02:45:47.933Z,7.20
2023-04-03T02:48:15.922Z,6.03
2023-04-03T02:50:42.872Z,5.93
2023-04-03T02:53:09.748Z,9.45
2023-04-03T02:55:36.715Z,7.90
2023-04-03T02:58:04.617Z,3.97
2023-04-03T03:00:31.761Z,7.50
2023-04-03T03:02:58.763Z,6.38
2023-04-03T03:05:25.856Z,1.45
2023-04-03T03:07:52.859Z,6.53
2023-04-03T03:10:20.173Z,4.47
2023-04-03T03:12:47.542Z,4.97
2023-04-03T03:15:14.519Z,9.38
2023-04-03T03:17:41.429Z,10.40
2023-04-03T03:20:09.162Z,7.90
2023-04-03T03:22:36.234Z,7.22
2023-04-03T03:25:04.057Z,8.02
2023-04-03T03:27:30.932Z,5.50
2023-04-03T03:29:57.858Z,3.25
2023-04-03T03:32:24.800Z,6.32
2023-04-03T03:34:52.446Z,6.35
2023-04-03T03:37:19.347Z,8.93
2023-04-03T03:39:46.221Z,7.72
2023-04-03T03:42:13.152Z,2.28
2023-04-03T03:44:40.334Z,4.70
2023-04-03T03:47:07.234Z,7.82
2023-04-03T03:49:34.141Z,8.57
2023-04-03T03:52:01.221Z,4.30
2023-04-03T03:54:28.085Z,5.07
2023-04-03T03:56:54.998Z,5.18
2023-04-03T03:59:22.035Z,5.50
2023-04-03T04:01:48.914Z,11.75
2023-04-03T04:04:15.938Z,5.50
2023-04-03T04:06:42.906Z,3.50
2023-04-03T04:09:10.915Z,11.20
2023-04-03T04:11:37.865Z,4.03
2023-04-03T04:14:04.762Z,7.50
2023-04-03T04:16:31.756Z,2.15
2023-04-03T04:18:58.626Z,4.40
2023-04-03T04:21:25.663Z,6.78
2023-04-03T04:23:52.509Z,17.38
2023-04-03T04:26:19.388Z,14.10
2023-04-03T04:28:46.244Z,11.65
2023-04-03T04:31:13.175Z,6.60
2023-04-03T04:33:40.125Z,4.90
2023-04-03T04:36:07.397Z,9.43
2023-04-03T04:38:34.286Z,10.85
2023-04-03T04:41:01.216Z,6.75
2023-04-03T04:43:28.364Z,6.28
2023-04-03T04:46:05.221Z,15.35
2023-04-03T04:48:32.812Z,4.45
2023-04-03T04:50:59.972Z,8.60
2023-04-03T04:53:26.895Z,4.32
2023-04-03T04:55:54.314Z,6.00
2023-04-03T04:58:21.724Z,10.32
2023-04-03T05:00:48.718Z,6.53
2023-04-03T05:03:15.874Z,9.98
2023-04-03T05:05:42.843Z,6.95
2023-04-03T05:08:09.701Z,5.00
2023-04-03T05:10:36.638Z,4.47
2023-04-03T05:13:03.498Z,7.03
2023-04-03T05:15:30.346Z,10.05
2023-04-03T05:17:57.240Z,11.70
2023-04-03T05:20:24.288Z,11.88
2023-04-03T05:22:51.152Z,8.38
2023-04-03T05:25:18.096Z,9.18
2023-04-03T05:27:45.005Z,3.83
2023-04-03T05:30:12.442Z,5.00
2023-04-03T05:32:39.320Z,5.30
2023-04-03T05:35:06.875Z,6.10
2023-04-03T05:37:34.412Z,4.95
2023-04-03T05:40:01.603Z,22.55
2023-04-03T05:42:28.593Z,4.38
2023-04-03T05:44:55.434Z,7.90
2023-04-03T05:47:22.355Z,7.35
2023-04-03T05:49:49.577Z,10.52
2023-04-03T05:52:24.579Z,7.80
2023-04-03T05:54:51.659Z,6.00
2023-04-03T05:57:19.417Z,6.50
2023-04-03T05:59:47.764Z,6.63
2023-04-03T06:02:20.502Z,4.68
2023-04-03T06:04:48.863Z,7.75
2023-04-03T06:07:22.234Z,6.43
2023-04-03T06:09:52.997Z,3.78
2023-04-03T06:12:20.896Z,6.95
2023-04-03T06:14:47.832Z,7.55
2023-04-03T06:17:16.373Z,2.92
2023-04-03T06:19:43.398Z,4.20
2023-04-03T06:22:10.267Z,4.50
2023-04-03T06:24:38.235Z,2.83
2023-04-03T06:27:05.628Z,5.35
2023-04-03T06:29:32.519Z,5.65
2023-04-03T06:31:59.468Z,5.00
2023-04-03T06:34:26.837Z,6.30
2023-04-03T06:36:53.760Z,5.57
2023-04-03T06:39:23.577Z,6.47
2023-04-03T06:41:51.767Z,7.40
2023-04-03T06:44:18.956Z,9.10
2023-04-03T06:46:47.596Z,3.47
2023-04-03T06:49:15.064Z,6.10
2023-04-03T06:51:41.930Z,3.78
2023-04-03T06:54:09.415Z,6.70
2023-04-03T06:56:36.924Z,5.35
2023-04-03T06:59:03.931Z,2.42
2023-04-03T07:01:31.267Z,5.38
2023-04-03T07:03:58.453Z,10.40
2023-04-03T07:06:28.099Z,4.82
2023-04-03T07:08:55.558Z,4.50
2023-04-03T07:11:23.484Z,10.70
2023-04-03T07:13:51.082Z,7.63
2023-04-03T07:16:18.120Z,3.22
2023-04-03T07:18:45.864Z,6.65
2023-04-03T07:21:13.005Z,4.50
2023-04-03T07:23:39.958Z,7.28
2023-04-03T07:26:07.650Z,7.13
2023-04-03T07:28:34.683Z,5.35
2023-04-03T07:31:09.689Z,6.30
2023-04-03T07:33:38.384Z,10.43
2023-04-03T07:36:08.347Z,5.20
2023-04-03T07:38:36.596Z,6.05
2023-04-03T07:41:05.050Z,6.68
2023-04-03T07:43:31.920Z,9.35
2023-04-03T07:46:00.048Z,8.00
2023-04-03T07:48:27.665Z,3.72
2023-04-03T07:50:54.647Z,6.90
2023-04-03T07:53:21.770Z,5.60
2023-04-03T07:55:50.171Z,12.90
2023-04-03T07:58:19.145Z,4.15
2023-04-03T08:00:46.692Z,4.07
2023-04-03T08:03:14.100Z,4.95
2023-04-03T08:05:42.777Z,4.18
2023-04-03T08:08:12.836Z,2.30
2023-04-03T08:10:40.358Z,6.78
2023-04-03T08:13:08.415Z,6.78
2023-04-03T08:15:36.263Z,10.05
2023-04-03T08:18:03.850Z,5.95
2023-04-03T08:20:30.822Z,8.13
2023-04-03T08:22:57.872Z,7.10
2023-04-03T08:25:24.851Z,6.45
2023-04-03T08:27:51.707Z,4.65
2023-04-03T08:30:18.681Z,6.15
2023-04-03T08:32:45.942Z,4.50
2023-04-03T08:35:13.184Z,9.10
2023-04-03T08:37:40.979Z,5.15
2023-04-03T08:40:14.422Z,7.13
2023-04-03T08:43:24.038Z,2.75
2023-04-03T08:45:54.860Z,4.43
2023-04-03T08:48:39.443Z,4.00
2023-04-03T08:51:16.405Z,7.80
2023-04-03T08:54:05.335Z,8.93
2023-04-03T08:56:34.422Z,1.90
2023-04-03T08:59:06.398Z,6.35
2023-04-03T09:01:39.206Z,3.55
2023-04-03T09:04:16.037Z,5.97
2023-04-03T09:06:58.693Z,3.42
2023-04-03T09:09:34.122Z,8.30
2023-04-03T09:12:19.390Z,8.07
2023-04-03T09:14:49.880Z,2.83
2023-04-03T09:17:46.375Z,2.97
2023-04-03T09:22:53.933Z,8.23
2023-04-03T09:25:36.995Z,3.30
2023-04-03T09:28:04.715Z,6.00
2023-04-03T09:30:31.841Z,6.72
2023-04-03T09:32:59.215Z,8.35
2023-04-03T09:35:40.592Z,7.38
2023-04-03T09:38:15.082Z,4.72
2023-04-03T09:40:44.789Z,2.58
2023-04-03T09:43:31.592Z,2.65
2023-04-03T09:46:32.206Z,3.75
2023-04-03T09:49:08.812Z,5.85
2023-04-03T09:51:38.418Z,5.20
2023-04-03T09:54:39.541Z,3.30
2023-04-03T09:57:14.106Z,2.47
2023-04-03T10:00:06.053Z,4.82
2023-04-03T10:02:41.042Z,3.13
2023-04-03T10:05:34.725Z,11.38
2023-04-03T10:08:27.265Z,0.63
2023-04-03T10:11:12.653Z,2.80
2023-04-03T10:14:01.106Z,2.92
2023-04-03T10:16:38.438Z,6.45
2023-04-03T10:19:36.893Z,6.55
2023-04-03T10:22:04.920Z,5.85
2023-04-03T10:24:37.553Z,5.85
2023-04-03T10:27:11.997Z,3.35
2023-04-03T10:29:56.753Z,3.42
2023-04-03T10:32:40.227Z,3.17
2023-04-03T10:35:21.733Z,6.80
2023-04-03T10:38:13.114Z,4.32
2023-04-03T10:41:00.400Z,4.10
2023-04-03T10:43:40.363Z,5.38
2023-04-03T10:46:10.314Z,4.15
2023-04-03T10:49:02.890Z,4.57
2023-04-03T10:51:47.402Z,5.97
2023-04-03T10:54:33.532Z,2.17
2023-04-03T10:57:12.559Z,4.20
2023-04-03T10:59:57.998Z,6.20
2023-04-03T11:02:33.803Z,3.90
2023-04-03T11:05:04.770Z,1.58
2023-04-03T11:07:41.978Z,6.85
2023-04-03T11:10:24.674Z,3.67
2023-04-03T11:13:18.808Z,2.47
2023-04-03T11:15:47.605Z,3.33
2023-04-03T11:18:23.704Z,2.97
2023-04-03T11:21:02.746Z,5.65
2023-04-03T11:23:49.073Z,2.97
2023-04-03T11:26:23.689Z,11.13
2023-04-03T11:29:00.003Z,3.58
2023-04-03T11:32:04.187Z,4.60
2023-04-03T11:34:42.771Z,7.00
2023-04-03T11:37:38.916Z,3.00
2023-04-03T11:40:19.637Z,2.63
2023-04-03T11:42:53.948Z,2.03
2023-04-03T11:45:26.675Z,0.90
2023-04-03T11:47:59.655Z,6.72
2023-04-03T11:50:42.688Z,1.08
2023-04-03T11:53:09.935Z,11.60
2023-04-03T11:55:51.850Z,2.30
2023-04-03T11:58:37.417Z,5.88
2023-04-03T12:01:12.061Z,8.60
2023-04-03T12:03:41.726Z,2.97
2023-04-03T12:06:10.864Z,3.05
2023-04-03T12:08:40.633Z,7.72
2023-04-03T12:11:10.697Z,10.50
2023-04-03T12:13:40.682Z,4.85
2023-04-03T12:16:19.885Z,9.93
2023-04-03T12:18:56.555Z,12.05
2023-04-03T12:21:35.084Z,4.78
2023-04-03T12:24:09.890Z,2.78
2023-04-03T12:27:14.360Z,1.50
2023-04-03T12:29:52.428Z,3.95
2023-04-03T12:32:44.307Z,3.35
2023-04-03T12:35:32.550Z,3.75
2023-04-03T12:38:21.603Z,5.45
2023-04-03T12:41:15.632Z,1.52
2023-04-03T12:43:54.973Z,2.53
2023-04-03T12:46:25.740Z,1.17
2023-04-03T12:48:58.684Z,4.53
2023-04-03T12:51:43.712Z,2.85
2023-04-03T12:54:28.876Z,4.53
2023-04-03T12:57:12.284Z,1.67
2023-04-03T12:59:39.322Z,1.27
2023-04-03T13:02:26.584Z,0.60
2023-04-03T13:04:55.834Z,7.07
2023-04-03T13:07:31.906Z,1.48
2023-04-03T13:10:14.272Z,4.50
2023-04-03T13:12:56.132Z,0.73
2023-04-03T13:15:30.536Z,4.10
2023-04-03T13:17:57.903Z,1.67
2023-04-03T13:20:36.785Z,5.00
2023-04-03T13:23:09.955Z,1.60
2023-04-03T13:25:42.766Z,9.40
2023-04-03T13:28:14.573Z,2.95
2023-04-03T13:30:51.360Z,5.93
2023-04-03T13:33:28.571Z,3.00
2023-04-03T13:36:06.091Z,3.13
2023-04-03T13:38:34.923Z,1.77
2023-04-03T13:41:22.363Z,3.15
2023-04-03T13:43:49.929Z,3.22
2023-04-03T13:46:16.988Z,7.03
2023-04-03T13:48:45.275Z,0.93
2023-04-03T13:51:16.084Z,2.90
2023-04-03T13:53:52.054Z,5.93
2023-04-03T13:56:27.960Z,1.60
2023-04-03T13:59:05.487Z,6.40
2023-04-03T14:01:39.965Z,2.47
2023-04-03T14:04:45.363Z,2.90
2023-04-03T14:07:13.986Z,4.00
2023-04-03T14:09:41.048Z,10.23
2023-04-03T14:12:30.272Z,2.72
2023-04-03T14:14:58.647Z,3.03
2023-04-03T14:17:27.532Z,20.15
2023-04-03T14:19:56.678Z,1.77
2023-04-03T14:22:26.833Z,3.53
2023-04-03T14:24:54.035Z,0.73
2023-04-03T14:27:27.809Z,2.03
2023-04-03T14:29:56.813Z,1.67
2023-04-03T14:32:25.882Z,4.68
2023-04-03T14:34:54.134Z,4.93
2023-04-03T14:37:24.832Z,3.17
2023-04-03T14:39:54.436Z,2.63
2023-04-03T14:42:25.313Z,3.85
2023-04-03T14:44:52.917Z,2.53
2023-04-03T14:47:31.189Z,2.40
2023-04-03T14:50:04.915Z,4.97
2023-04-03T14:52:34.755Z,0.98
2023-04-03T14:55:02.912Z,7.78
2023-04-03T14:57:31.618Z,1.60
2023-04-03T14:59:59.014Z,0.82
2023-04-03T15:02:31.941Z,2.53
2023-04-03T15:05:01.101Z,3.40
2023-04-03T15:07:31.144Z,5.15
2023-04-03T15:09:58.278Z,2.90
2023-04-03T15:12:26.486Z,1.17
2023-04-03T15:15:00.823Z,5.68
2023-04-03T15:17:29.962Z,2.55
2023-04-03T15:19:57.025Z,2.42
2023-04-03T15:22:23.902Z,2.78
2023-04-03T15:24:51.101Z,5.15
2023-04-03T15:27:18.412Z,1.45
2023-04-03T15:29:46.172Z,4.32
2023-04-03T15:32:14.292Z,3.75
2023-04-03T15:34:41.529Z,4.68
2023-04-03T15:37:08.575Z,14.98
2023-04-03T15:39:35.594Z,1.38
2023-04-03T15:42:07.123Z,2.92
2023-04-03T15:44:37.262Z,5.32
2023-04-03T15:47:04.353Z,2.78
2023-04-03T15:49:34.412Z,1.67
2023-04-03T15:52:01.434Z,2.80
2023-04-03T15:54:30.581Z,1.95
2023-04-03T15:56:57.923Z,2.40
2023-04-03T15:59:25.042Z,9.75
2023-04-03T16:01:53.486Z,1.92
2023-04-03T16:04:21.911Z,3.15
2023-04-03T16:06:49.617Z,1.45
2023-04-03T16:09:16.817Z,4.18
2023-04-03T16:11:44.510Z,7.47
2023-04-03T16:14:11.684Z,7.03
2023-04-03T16:16:39.281Z,3.92
2023-04-03T16:19:06.865Z,2.33
2023-04-03T16:21:34.440Z,5.28
2023-04-03T16:24:02.166Z,4.95
2023-04-03T16:26:29.044Z,5.97
2023-04-03T16:28:56.098Z,2.17
2023-04-03T16:31:24.989Z,2.90
2023-04-03T16:33:52.072Z,2.75
2023-04-03T16:36:19.108Z,0.73
2023-04-03T16:38:46.267Z,2.80
2023-04-03T16:41:13.228Z,3.88
2023-04-03T16:43:40.116Z,1.63
2023-04-03T16:46:07.146Z,4.65
2023-04-03T16:48:34.139Z,2.08
2023-04-03T16:51:01.322Z,1.70
2023-04-03T16:53:29.073Z,9.35
2023-04-03T16:55:57.964Z,6.32
2023-04-03T16:58:25.023Z,1.67
2023-04-03T17:00:52.211Z,5.60
2023-04-03T17:03:19.223Z,6.93
2023-04-03T17:05:49.226Z,9.02
2023-04-03T17:08:18.314Z,4.63
2023-04-03T17:10:45.283Z,6.18
2023-04-03T17:13:12.181Z,5.57
2023-04-03T17:15:39.387Z,9.57
2023-04-03T17:18:07.397Z,5.32
2023-04-03T17:20:34.841Z,7.68
2023-04-03T17:23:01.950Z,7.90
2023-04-03T17:25:28.871Z,7.50
2023-04-03T17:27:55.786Z,1.83
2023-04-03T17:30:23.386Z,7.55
2023-04-03T17:32:50.285Z,5.95
2023-04-03T17:35:17.259Z,12.10
2023-04-03T17:37:44.154Z,11.73
2023-04-03T17:40:14.323Z,14.27
2023-04-03T17:42:41.353Z,16.63
2023-04-03T17:45:08.732Z,18.67
2023-04-03T17:47:35.821Z,37.22
2023-04-03T17:50:02.731Z,19.08
2023-04-03T17:52:31.970Z,12.82
2023-04-03T17:54:58.900Z,28.98
2023-04-03T17:57:25.818Z,43.10
2023-04-03T17:59:54.114Z,17.50
2023-04-03T18:02:21.263Z,36.08
2023-04-03T18:04:48.228Z,15.65
2023-04-03T18:07:15.116Z,23.80
2023-04-03T18:09:42.535Z,17.95
2023-04-03T18:12:10.590Z,27.83
2023-04-03T18:14:39.249Z,27.50
2023-04-03T18:17:06.366Z,34.33
2023-04-03T18:19:33.836Z,24.02
2023-04-03T18:22:14.219Z,26.92
2023-04-03T18:24:43.571Z,43.15
2023-04-03T18:27:14.139Z,31.98
2023-04-03T18:29:43.691Z,26.02
2023-04-03T18:32:13.586Z,17.27
2023-04-03T18:34:40.779Z,22.92
2023-04-03T18:37:07.756Z,18.30
2023-04-03T18:39:34.958Z,16.27
2023-04-03T18:42:09.643Z,10.40
2023-04-03T18:44:38.237Z,17.67
2023-04-03T18:47:05.440Z,15.40
2023-04-03T18:49:34.272Z,18.50
2023-04-03T18:52:01.178Z,15.70
2023-04-03T18:54:28.182Z,9.82
2023-04-03T18:56:55.061Z,10.43
2023-04-03T18:59:22.103Z,4.68
2023-04-03T19:01:49.158Z,5.28
2023-04-03T19:04:16.272Z,11.70
2023-04-03T19:06:44.385Z,11.18
2023-04-03T19:09:11.464Z,13.25
2023-04-03T19:11:38.356Z,10.35
2023-04-03T19:14:16.045Z,8.20
2023-04-03T19:16:44.728Z,14.70
2023-04-03T19:19:12.204Z,9.93
2023-04-03T19:21:41.498Z,11.00
2023-04-03T19:24:13.059Z,9.23
2023-04-03T19:26:41.492Z,8.55
2023-04-03T19:29:09.341Z,12.15
2023-04-03T19:31:37.355Z,12.52
2023-04-03T19:34:05.629Z,14.45
2023-04-03T19:36:33.915Z,28.77
2023-04-03T19:39:00.932Z,13.27
2023-04-03T19:41:30.880Z,17.52
2023-04-03T19:43:58.254Z,18.35
2023-04-03T19:46:26.972Z,10.93
2023-04-03T19:48:54.290Z,13.82
2023-04-03T19:51:21.358Z,10.25
2023-04-03T19:53:48.634Z,9.07
2023-04-03T19:56:20.848Z,9.25
2023-04-03T19:58:53.781Z,2.67
2023-04-03T20:01:27.104Z,7.93
2023-04-03T20:03:54.121Z,13.05
2023-04-03T20:06:21.847Z,11.80
2023-04-03T20:08:49.345Z,7.43
2023-04-03T20:11:16.272Z,6.82
2023-04-03T20:13:43.179Z,3.22
2023-04-03T20:16:10.344Z,3.97
2023-04-03T20:18:38.753Z,12.40
2023-04-03T20:21:06.859Z,12.10
2023-04-03T20:23:34.664Z,9.98
2023-04-03T20:26:11.625Z,4.55
2023-04-03T20:28:43.111Z,9.40
2023-04-03T20:31:12.143Z,6.18
2023-04-03T20:33:39.167Z,3.72
2023-04-03T20:36:06.238Z,8.18
2023-04-03T20:38:33.177Z,13.10
2023-04-03T20:41:00.406Z,17.30
2023-04-03T20:43:28.430Z,17.58
2023-04-03T20:45:55.740Z,17.25
2023-04-03T20:48:22.837Z,28.52
2023-04-03T20:50:49.806Z,20.35
2023-04-03T20:53:19.061Z,18.35
2023-04-03T20:55:57.532Z,19.50
2023-04-03T20:58:25.149Z,10.55
2023-04-03T21:00:56.536Z,19.27
2023-04-03T21:03:25.385Z,13.35
2023-04-03T21:06:01.113Z,18.15
2023-04-03T21:11:52.580Z,19.48
2023-04-03T21:14:56.949Z,18.50
2023-04-03T21:17:23.682Z,17.00
2023-04-03T21:19:50.548Z,14.82
2023-04-03T21:22:17.522Z,10.98
2023-04-03T21:24:44.776Z,14.35
2023-04-03T21:27:11.812Z,16.25
2023-04-03T21:29:38.983Z,15.73
2023-04-03T21:32:06.368Z,12.98
2023-04-03T21:34:33.740Z,23.33
2023-04-03T21:37:08.793Z,19.17
2023-04-03T21:39:36.685Z,23.55
2023-04-03T21:42:03.892Z,16.00
2023-04-03T21:44:30.957Z,19.40
2023-04-03T21:46:58.033Z,22.98
2023-04-03T21:49:25.910Z,10.27
2023-04-03T21:51:52.839Z,11.00
2023-04-03T21:54:20.334Z,11.50
2023-04-03T21:56:51.659Z,18.63
2023-04-03T21:59:18.852Z,14.70
2023-04-03T22:01:46.062Z,12.35
2023-04-03T22:04:13.118Z,10.85
2023-04-03T22:06:40.028Z,18.17
2023-04-03T22:09:07.277Z,9.02
2023-04-03T22:11:34.168Z,8.00
2023-04-03T22:14:01.075Z,22.83
2023-04-03T22:16:28.033Z,9.68
2023-04-03T22:18:57.037Z,17.42
2023-04-03T22:21:23.918Z,23.00
2023-04-03T22:23:50.922Z,13.18
2023-04-03T22:26:17.795Z,21.35
2023-04-03T22:28:47.023Z,22.85
2023-04-03T22:31:16.290Z,20.23
2023-04-03T22:33:45.647Z,18.23
2023-04-03T22:36:14.137Z,17.55
2023-04-03T22:38:44.985Z,28.50
2023-04-03T22:41:12.456Z,20.48
2023-04-03T22:43:40.165Z,20.58
2023-04-03T22:46:16.906Z,21.71
2023-04-03T22:48:45.357Z,19.08
2023-04-03T22:51:12.986Z,21.35
2023-04-03T22:53:39.864Z,6.07
2023-04-03T22:56:11.320Z,13.80
2023-04-03T22:58:39.084Z,13.80
2023-04-03T23:01:08.347Z,20.48
2023-04-03T23:03:36.703Z,12.13
2023-04-03T23:06:04.914Z,7.93
2023-04-03T23:08:34.536Z,9.48
2023-04-03T23:11:02.529Z,6.30
2023-04-03T23:13:29.884Z,6.57
2023-04-03T23:16:01.086Z,13.35
2023-04-03T23:18:29.781Z,19.27
2023-04-03T23:20:58.953Z,8.13
2023-04-03T23:23:25.914Z,10.73
2023-04-03T23:25:53.739Z,14.30
2023-04-03T23:28:21.115Z,8.75
2023-04-03T23:30:48.277Z,6.50
2023-04-03T23:33:15.594Z,7.05
2023-04-03T23:35:46.518Z,8.63
2023-04-03T23:38:13.964Z,3.78
2023-04-03T23:40:45.324Z,14.75
2023-04-03T23:43:12.818Z,3.85
2023-04-03T23:45:39.974Z,12.07
2023-04-03T23:48:07.300Z,6.22
2023-04-03T23:50:34.207Z,4.72
2023-04-03T23:53:01.082Z,3.53
2023-04-03T23:55:27.993Z,10.00
2023-04-03T23:57:54.930Z,7.93
